Time;durP1;ratioP1;P1;durP2;ratioP2;P2;SDS_P1;SDS_P2;PMS_P1;PMS_P2;Temp;Humidity;BMP_temperature;BMP_pressure;BME280_temperature;BME280_humidity;BME280_pressure;Samples;Min_cycle;Max_cycle;Signal;HPM_P1;HPM_P2
2022/04/01 00:01:55;;;;;;;13.77;11.95;;;;;;;;;;4956893;29;20126;-67
2022/04/01 00:04:24;;;;;;;14.70;13.13;;;;;;;;;;4957556;28;20059;-67
2022/04/01 00:06:52;;;;;;;13.80;12.50;;;;;;;;;;4957223;28;20522;-67
2022/04/01 00:09:21;;;;;;;12.52;11.30;;;;;;;;;;4956541;28;20535;-67
2022/04/01 00:11:48;;;;;;;13.32;12.02;;;;;;;;;;4957031;28;20055;-67
2022/04/01 00:14:17;;;;;;;14.27;11.38;;;;;;;;;;4957476;28;20155;-67
2022/04/01 00:16:45;;;;;;;14.90;11.52;;;;;;;;;;4958075;28;20138;-67
2022/04/01 00:19:16;;;;;;;11.70;10.60;;;;;;;;;;4956200;29;20062;-67
2022/04/01 00:21:47;;;;;;;13.93;10.27;;;;;;;;;;4956922;28;20051;-67
2022/04/01 00:24:16;;;;;;;11.88;10.68;;;;;;;;;;4957062;28;20051;-67
2022/04/01 00:26:45;;;;;;;12.70;11.40;;;;;;;;;;4957009;28;20061;-67
2022/04/01 00:29:16;;;;;;;13.88;11.07;;;;;;;;;;4957492;28;20051;-67
2022/04/01 00:31:58;;;;;;;11.95;9.07;;;;;;;;;;4956633;28;20515;-67
2022/04/01 00:34:32;;;;;;;16.00;9.45;;;;;;;;;;4955983;29;20047;-67
2022/04/01 00:37:00;;;;;;;9.43;8.43;;;;;;;;;;4955433;29;20051;-67
2022/04/01 00:39:30;;;;;;;13.25;9.52;;;;;;;;;;4956886;28;20066;-67
2022/04/01 00:42:02;;;;;;;15.88;12.38;;;;;;;;;;4956761;28;20184;-66
2022/04/01 00:44:33;;;;;;;17.60;15.90;;;;;;;;;;4956946;28;20050;-67
2022/04/01 00:47:08;;;;;;;18.85;17.05;;;;;;;;;;4956784;28;20047;-67
2022/04/01 00:49:38;;;;;;;23.20;18.42;;;;;;;;;;4954954;28;20057;-67
2022/04/01 00:52:09;;;;;;;17.88;16.08;;;;;;;;;;4955619;28;20059;-67
2022/04/01 00:54:38;;;;;;;18.17;16.38;;;;;;;;;;4956429;28;20137;-67
2022/04/01 00:57:08;;;;;;;17.83;16.02;;;;;;;;;;4956765;28;20074;-67
2022/04/01 00:59:36;;;;;;;15.85;14.35;;;;;;;;;;4956615;29;20114;-67
2022/04/01 01:02:08;;;;;;;17.33;15.63;;;;;;;;;;4956354;28;20062;-67
2022/04/01 01:04:38;;;;;;;17.38;15.45;;;;;;;;;;4938026;28;20107;-67
2022/04/01 01:07:07;;;;;;;17.23;15.48;;;;;;;;;;4937623;29;20086;-67
2022/04/01 01:09:39;;;;;;;20.42;14.18;;;;;;;;;;4937394;29;20046;-66
2022/04/01 01:12:08;;;;;;;16.30;14.38;;;;;;;;;;4946400;28;20058;-67
2022/04/01 01:14:40;;;;;;;14.98;13.57;;;;;;;;;;4941001;28;20048;-67
2022/04/01 01:17:14;;;;;;;16.52;12.93;;;;;;;;;;4937709;29;20044;-67
2022/04/01 01:19:46;;;;;;;13.43;12.05;;;;;;;;;;4940321;29;20455;-66
2022/04/01 01:22:14;;;;;;;13.55;12.25;;;;;;;;;;4956106;28;20434;-67
2022/04/01 01:24:43;;;;;;;15.05;12.95;;;;;;;;;;4956033;28;20514;-67
2022/04/01 01:27:13;;;;;;;17.27;12.90;;;;;;;;;;4953354;29;20055;-67
2022/04/01 01:29:42;;;;;;;14.80;12.38;;;;;;;;;;4935734;29;20051;-67
2022/04/01 01:32:19;;;;;;;17.25;15.63;;;;;;;;;;4936479;29;20507;-67
2022/04/01 01:34:47;;;;;;;19.80;17.83;;;;;;;;;;4937160;29;20432;-67
2022/04/01 01:37:17;;;;;;;20.60;17.65;;;;;;;;;;4936305;29;20111;-67
2022/04/01 01:39:47;;;;;;;23.45;19.75;;;;;;;;;;4936671;29;20044;-66
2022/04/01 01:42:19;;;;;;;21.33;19.13;;;;;;;;;;4951353;28;20143;-67
2022/04/01 01:44:49;;;;;;;20.75;18.67;;;;;;;;;;4936266;29;20059;-67
2022/04/01 01:47:18;;;;;;;19.50;17.67;;;;;;;;;;4935313;29;20052;-67
2022/04/01 01:55:21;;;;;;;18.08;16.05;;;;;;;;;;4936679;29;20044;-67
2022/04/01 01:57:51;;;;;;;20.30;16.15;;;;;;;;;;4941782;29;20039;-67
2022/04/01 02:00:22;;;;;;;17.70;15.70;;;;;;;;;;4953956;29;20406;-67
2022/04/01 02:02:50;;;;;;;18.95;15.75;;;;;;;;;;4943038;28;20067;-66
2022/04/01 02:05:20;;;;;;;18.00;16.10;;;;;;;;;;4945405;28;20068;-67
2022/04/01 02:07:48;;;;;;;17.58;15.20;;;;;;;;;;4936442;29;20055;-67
2022/04/01 02:10:17;;;;;;;16.23;14.10;;;;;;;;;;4936238;29;20099;-67
2022/04/01 02:12:49;;;;;;;21.40;15.88;;;;;;;;;;4935178;29;20507;-67
2022/04/01 02:15:18;;;;;;;18.67;16.50;;;;;;;;;;4934774;29;20503;-67
2022/04/01 02:17:46;;;;;;;16.85;15.30;;;;;;;;;;4954403;28;20130;-67
2022/04/01 02:20:15;;;;;;;15.70;14.18;;;;;;;;;;4953954;29;20106;-67
2022/04/01 02:22:43;;;;;;;15.23;13.27;;;;;;;;;;4953993;28;20105;-67
2022/04/01 02:25:16;;;;;;;15.70;12.85;;;;;;;;;;4954218;28;20055;-67
2022/04/01 02:27:47;;;;;;;14.07;11.75;;;;;;;;;;4953843;28;20051;-67
2022/04/01 02:30:15;;;;;;;14.88;12.90;;;;;;;;;;4954219;28;20043;-67
2022/04/01 02:32:49;;;;;;;13.35;11.98;;;;;;;;;;4949199;28;20052;-67
2022/04/01 02:35:30;;;;;;;17.02;14.80;;;;;;;;;;4934887;29;20106;-67
2022/04/01 02:38:00;;;;;;;17.50;15.32;;;;;;;;;;4934695;29;20060;-67
2022/04/01 02:40:31;;;;;;;18.02;16.13;;;;;;;;;;4935117;29;20044;-67
2022/04/01 02:42:59;;;;;;;19.52;17.42;;;;;;;;;;4934257;29;20055;-67
2022/04/01 02:45:28;;;;;;;19.23;16.95;;;;;;;;;;4935056;29;20487;-67
2022/04/01 02:47:57;;;;;;;20.42;17.63;;;;;;;;;;4934726;29;20056;-67
2022/04/01 02:50:38;;;;;;;19.88;17.80;;;;;;;;;;4937083;29;20052;-67
2022/04/01 02:53:07;;;;;;;20.13;18.15;;;;;;;;;;4954867;28;20055;-67
2022/04/01 02:55:36;;;;;;;20.38;18.25;;;;;;;;;;4955247;28;20514;-67
2022/04/01 02:58:06;;;;;;;25.27;18.45;;;;;;;;;;4953127;29;20466;-67
2022/04/01 03:00:39;;;;;;;24.35;17.98;;;;;;;;;;4953120;28;20047;-67
2022/04/01 03:03:09;;;;;;;22.20;19.15;;;;;;;;;;4955053;28;20051;-67
2022/04/01 03:05:40;;;;;;;22.48;19.10;;;;;;;;;;4954022;28;20503;-67
2022/04/01 03:08:09;;;;;;;25.35;19.17;;;;;;;;;;4954757;28;20062;-67
2022/04/01 03:10:39;;;;;;;20.70;18.58;;;;;;;;;;4938473;29;20066;-67
2022/04/01 03:13:11;;;;;;;22.45;17.77;;;;;;;;;;4953518;28;20102;-67
2022/04/01 03:16:02;;;;;;;19.10;16.13;;;;;;;;;;4958473;28;20066;-67
2022/04/01 03:18:42;;;;;;;18.55;16.75;;;;;;;;;;4957564;28;20047;-67
2022/04/01 03:21:11;;;;;;;21.75;16.75;;;;;;;;;;4957115;29;20460;-67
2022/04/01 03:23:48;;;;;;;19.65;17.38;;;;;;;;;;4956977;28;20039;-67
2022/04/01 03:26:20;;;;;;;17.02;15.27;;;;;;;;;;4956583;29;20067;-67
2022/04/01 03:29:19;;;;;;;17.75;14.57;;;;;;;;;;4957391;28;20054;-67
2022/04/01 03:31:48;;;;;;;18.45;14.50;;;;;;;;;;4958393;28;20048;-67
2022/04/01 03:34:19;;;;;;;17.05;14.90;;;;;;;;;;4956700;28;20051;-67
2022/04/01 03:36:50;;;;;;;17.13;14.95;;;;;;;;;;4956891;28;20059;-67
2022/04/01 03:39:21;;;;;;;15.75;14.23;;;;;;;;;;4940753;29;20074;-67
2022/04/01 03:41:55;;;;;;;17.20;13.63;;;;;;;;;;4956915;29;20078;-67
2022/04/01 03:44:24;;;;;;;19.30;12.05;;;;;;;;;;4954823;28;20055;-66
2022/04/01 03:47:20;;;;;;;17.50;13.50;;;;;;;;;;4957844;28;20051;-67
2022/04/01 03:49:55;;;;;;;15.27;13.35;;;;;;;;;;4941881;28;20051;-67
2022/04/01 03:52:24;;;;;;;18.00;12.35;;;;;;;;;;4939000;29;20050;-67
2022/04/01 03:54:56;;;;;;;11.82;10.63;;;;;;;;;;4937015;29;20258;-66
2022/04/01 03:58:03;;;;;;;11.32;10.23;;;;;;;;;;4952246;28;20049;-68
2022/04/01 04:01:11;;;;;;;10.65;7.72;;;;;;;;;;4950843;29;20054;-68
2022/04/01 04:03:40;;;;;;;11.73;9.93;;;;;;;;;;4953857;28;20047;-67
2022/04/01 04:06:11;;;;;;;12.30;11.00;;;;;;;;;;4943624;29;20051;-68
2022/04/01 04:08:40;;;;;;;12.18;10.95;;;;;;;;;;4947729;29;20561;-68
2022/04/01 04:11:09;;;;;;;13.00;10.43;;;;;;;;;;4951847;28;20511;-68
2022/04/01 04:13:59;;;;;;;15.25;11.57;;;;;;;;;;4950831;29;20515;-68
2022/04/01 04:16:36;;;;;;;16.17;11.50;;;;;;;;;;4945303;29;20142;-68
2022/04/01 04:19:10;;;;;;;13.98;10.13;;;;;;;;;;4948172;29;20059;-68
2022/04/01 04:22:00;;;;;;;12.95;10.23;;;;;;;;;;4951670;29;20047;-67
2022/04/01 04:24:49;;;;;;;11.40;8.60;;;;;;;;;;4946292;28;20423;-68
2022/04/01 04:27:26;;;;;;;11.63;8.65;;;;;;;;;;4940689;28;20513;-67
2022/04/01 04:30:08;;;;;;;8.45;7.55;;;;;;;;;;4944692;29;20114;-68
2022/04/01 04:33:09;;;;;;;11.45;6.40;;;;;;;;;;4950533;29;20614;-68
2022/04/01 04:35:39;;;;;;;10.75;6.88;;;;;;;;;;4952142;29;20051;-68
2022/04/01 04:38:10;;;;;;;10.40;7.13;;;;;;;;;;4951778;29;20078;-67
2022/04/01 04:40:42;;;;;;;10.60;7.45;;;;;;;;;;4951560;29;20106;-68
2022/04/01 04:43:13;;;;;;;10.75;8.25;;;;;;;;;;4948870;29;20439;-68
2022/04/01 04:45:42;;;;;;;11.57;7.88;;;;;;;;;;4946371;29;20093;-69
2022/04/01 04:48:16;;;;;;;10.25;8.35;;;;;;;;;;4947494;29;20384;-68
2022/04/01 04:50:51;;;;;;;12.65;9.10;;;;;;;;;;4949380;28;20058;-68
2022/04/01 04:53:20;;;;;;;9.20;8.30;;;;;;;;;;4949836;28;20047;-68
2022/04/01 04:55:49;;;;;;;12.88;10.10;;;;;;;;;;4948826;28;20044;-69
2022/04/01 04:58:24;;;;;;;11.23;9.82;;;;;;;;;;4944186;29;20062;-68
2022/04/01 05:01:00;;;;;;;;;;;;;;;;;;4940708;29;20055;-68
2022/04/01 05:03:35;;;;;;;11.75;9.45;;;;;;;;;;4947562;29;20013;-68
2022/04/01 05:06:09;;;;;;;20.35;10.80;;;;;;;;;;4948796;29;20059;-68
2022/04/01 05:09:07;;;;;;;13.05;9.45;;;;;;;;;;4945298;29;20500;-69
2022/04/01 05:12:19;;;;;;;13.98;9.95;;;;;;;;;;4952632;28;20046;-68
2022/04/01 05:15:11;;;;;;;10.85;8.80;;;;;;;;;;4951720;28;20426;-67
2022/04/01 05:17:52;;;;;;;11.38;8.63;;;;;;;;;;4946424;29;20154;-68
2022/04/01 05:20:30;;;;;;;16.42;8.95;;;;;;;;;;4940420;29;20043;-67
2022/04/01 05:23:12;;;;;;;13.07;9.98;;;;;;;;;;4945888;28;20107;-68
2022/04/01 05:25:58;;;;;;;14.40;10.23;;;;;;;;;;4969460;28;20050;-68
2022/04/01 05:28:52;;;;;;;12.68;10.38;;;;;;;;;;4952733;29;20045;-69
2022/04/01 05:31:34;;;;;;;14.18;12.00;;;;;;;;;;4952653;28;20043;-68
2022/04/01 05:34:09;;;;;;;17.08;12.43;;;;;;;;;;4924902;29;20059;-68
2022/04/01 05:36:45;;;;;;;17.33;12.30;;;;;;;;;;4945830;28;20054;-68
2022/04/01 05:39:14;;;;;;;19.77;12.57;;;;;;;;;;4946173;28;20065;-68
2022/04/01 05:41:47;;;;;;;14.50;12.65;;;;;;;;;;4929504;29;20081;-72
2022/04/01 05:44:16;;;;;;;14.55;12.65;;;;;;;;;;4931338;29;20051;-69
2022/04/01 05:46:45;;;;;;;13.93;12.43;;;;;;;;;;4929426;29;20507;-68
2022/04/01 05:49:17;;;;;;;18.42;12.23;;;;;;;;;;4939161;29;20058;-68
2022/04/01 05:51:46;;;;;;;15.27;12.60;;;;;;;;;;4948275;29;20135;-68
2022/04/01 05:54:15;;;;;;;16.00;12.60;;;;;;;;;;4945796;28;20154;-67
2022/04/01 05:56:46;;;;;;;17.05;12.73;;;;;;;;;;4947111;29;20039;-68
2022/04/01 05:59:17;;;;;;;18.08;13.35;;;;;;;;;;4940777;29;20107;-68
2022/04/01 06:02:07;;;;;;;15.32;13.32;;;;;;;;;;4949098;29;20392;-68
2022/04/01 06:05:13;;;;;;;19.05;13.98;;;;;;;;;;4948286;29;20574;-68
2022/04/01 06:07:47;;;;;;;19.65;15.63;;;;;;;;;;4953409;28;20051;-68
2022/04/01 06:10:42;;;;;;;18.08;15.07;;;;;;;;;;4946624;28;20423;-68
2022/04/01 06:13:45;;;;;;;19.15;15.75;;;;;;;;;;4943659;28;20071;-67
2022/04/01 06:16:53;;;;;;;17.73;15.93;;;;;;;;;;4940128;29;20058;-66
2022/04/01 06:19:41;;;;;;;23.40;15.90;;;;;;;;;;4933998;29;20468;-67
2022/04/01 06:22:20;;;;;;;20.17;16.98;;;;;;;;;;4947273;29;20058;-67
2022/04/01 06:25:17;;;;;;;19.67;16.08;;;;;;;;;;4952728;28;20043;-68
2022/04/01 06:27:49;;;;;;;19.98;16.48;;;;;;;;;;4953092;28;20194;-67
2022/04/01 06:30:22;;;;;;;20.27;17.60;;;;;;;;;;4934406;29;20079;-67
2022/04/01 06:33:03;;;;;;;19.42;17.10;;;;;;;;;;4934174;29;20135;-67
2022/04/01 06:36:00;;;;;;;20.23;16.13;;;;;;;;;;4940463;29;20051;-67
2022/04/01 06:38:53;;;;;;;17.73;15.93;;;;;;;;;;4940731;29;20055;-67
2022/04/01 06:41:25;;;;;;;18.40;15.25;;;;;;;;;;4948210;29;20412;-67
2022/04/01 06:44:07;;;;;;;17.23;15.43;;;;;;;;;;4933911;29;20106;-68
2022/04/01 06:46:59;;;;;;;17.88;15.63;;;;;;;;;;4928968;29;20162;-67
2022/04/01 06:49:27;;;;;;;18.65;15.80;;;;;;;;;;4943735;29;20055;-67
2022/04/01 06:52:14;;;;;;;18.95;14.55;;;;;;;;;;4954540;28;20057;-67
2022/04/01 06:55:02;;;;;;;17.10;15.27;;;;;;;;;;4958673;29;20058;-68
2022/04/01 06:57:49;;;;;;;14.80;13.02;;;;;;;;;;4958638;29;20082;-67
2022/04/01 07:00:30;;;;;;;18.33;13.18;;;;;;;;;;4958560;28;20071;-67
2022/04/01 07:03:00;;;;;;;16.20;13.52;;;;;;;;;;4959034;28;20102;-68
2022/04/01 07:05:28;;;;;;;13.23;11.07;;;;;;;;;;4957604;28;20491;-69
2022/04/01 07:07:59;;;;;;;12.90;11.60;;;;;;;;;;4952233;29;20549;-68
2022/04/01 07:10:28;;;;;;;14.13;11.38;;;;;;;;;;4947624;29;20134;-68
2022/04/01 07:12:57;;;;;;;13.48;11.63;;;;;;;;;;4938896;29;20579;-69
2022/04/01 07:15:26;;;;;;;12.88;11.68;;;;;;;;;;4939068;28;20103;-69
2022/04/01 07:17:55;;;;;;;10.60;9.38;;;;;;;;;;4939130;29;20075;-68
2022/04/01 07:20:25;;;;;;;10.15;8.98;;;;;;;;;;4939278;29;20059;-69
2022/04/01 07:22:55;;;;;;;13.63;9.57;;;;;;;;;;4938874;29;20097;-68
2022/04/01 07:25:24;;;;;;;12.20;9.15;;;;;;;;;;4939268;29;20572;-68
2022/04/01 07:27:56;;;;;;;10.13;8.90;;;;;;;;;;4939374;29;20055;-68
2022/04/01 07:30:26;;;;;;;12.57;11.23;;;;;;;;;;4939487;29;20083;-68
2022/04/01 07:33:00;;;;;;;13.95;9.77;;;;;;;;;;4938773;29;20052;-68
2022/04/01 07:35:47;;;;;;;16.20;9.57;;;;;;;;;;4939488;29;20055;-69
2022/04/01 07:38:16;;;;;;;13.55;9.13;;;;;;;;;;4938850;29;20213;-67
2022/04/01 07:40:45;;;;;;;16.67;10.38;;;;;;;;;;4947172;29;20082;-68
2022/04/01 07:43:14;;;;;;;12.38;8.60;;;;;;;;;;4957518;28;20062;-68
2022/04/01 07:45:44;;;;;;;12.02;9.68;;;;;;;;;;4957910;28;20059;-68
2022/04/01 07:48:14;;;;;;;9.98;8.68;;;;;;;;;;4957803;28;20055;-67
2022/04/01 07:50:43;;;;;;;11.50;7.78;;;;;;;;;;4944153;29;20478;-67
2022/04/01 07:53:12;;;;;;;8.98;7.18;;;;;;;;;;4956769;28;20468;-67
2022/04/01 07:55:43;;;;;;;9.00;7.15;;;;;;;;;;4957378;28;20142;-68
2022/04/01 07:58:12;;;;;;;7.38;6.63;;;;;;;;;;4957569;28;20051;-68
2022/04/01 08:00:54;;;;;;;6.80;6.07;;;;;;;;;;4957828;28;20055;-67
2022/04/01 08:03:23;;;;;;;8.23;7.18;;;;;;;;;;4957075;28;20136;-68
2022/04/01 08:05:52;;;;;;;7.55;6.38;;;;;;;;;;4957405;28;20055;-68
2022/04/01 08:08:20;;;;;;;7.93;5.40;;;;;;;;;;4956967;28;20051;-68
2022/04/01 08:10:51;;;;;;;6.22;5.63;;;;;;;;;;4957550;28;20082;-68
2022/04/01 08:13:20;;;;;;;5.53;4.95;;;;;;;;;;4955566;28;20039;-67
2022/04/01 08:15:48;;;;;;;8.40;5.63;;;;;;;;;;4957070;29;20051;-68
2022/04/01 08:18:20;;;;;;;5.80;5.15;;;;;;;;;;4955741;29;20043;-68
2022/04/01 08:20:49;;;;;;;6.57;5.65;;;;;;;;;;4957233;28;20138;-68
2022/04/01 08:23:19;;;;;;;7.32;5.20;;;;;;;;;;4956692;28;20071;-69
2022/04/01 08:25:47;;;;;;;9.30;5.78;;;;;;;;;;4956465;28;20506;-68
2022/04/01 08:28:15;;;;;;;7.85;5.82;;;;;;;;;;4937652;29;20071;-68
2022/04/01 08:30:45;;;;;;;8.10;5.60;;;;;;;;;;4938217;29;20052;-68
2022/04/01 08:33:20;;;;;;;8.52;5.50;;;;;;;;;;4938156;29;20117;-68
2022/04/01 08:35:48;;;;;;;7.68;6.68;;;;;;;;;;4937988;29;20078;-68
2022/04/01 08:38:16;;;;;;;6.47;5.88;;;;;;;;;;4936565;29;20115;-68
2022/04/01 08:40:45;;;;;;;8.45;5.70;;;;;;;;;;4937652;29;20058;-67
2022/04/01 08:43:27;;;;;;;7.18;5.45;;;;;;;;;;4937926;29;20142;-68
2022/04/01 08:46:03;;;;;;;6.70;5.70;;;;;;;;;;4937171;29;20071;-68
2022/04/01 08:48:35;;;;;;;6.25;5.00;;;;;;;;;;4937755;29;20496;-68
2022/04/01 08:51:04;;;;;;;10.52;5.93;;;;;;;;;;4937272;29;20059;-68
2022/04/01 08:53:37;;;;;;;9.55;6.25;;;;;;;;;;4937561;29;20048;-68
2022/04/01 08:56:05;;;;;;;6.93;5.43;;;;;;;;;;4937238;29;20114;-68
2022/04/01 08:58:36;;;;;;;7.90;6.40;;;;;;;;;;4945490;29;20059;-68
2022/04/01 09:01:08;;;;;;;6.37;5.70;;;;;;;;;;4957022;28;20055;-68
2022/04/01 09:03:39;;;;;;;6.68;5.95;;;;;;;;;;4956879;28;20290;-68
2022/04/01 09:06:08;;;;;;;10.48;5.70;;;;;;;;;;4956473;28;20054;-67
2022/04/01 09:08:40;;;;;;;8.13;5.78;;;;;;;;;;4956490;28;20081;-68
2022/04/01 09:11:18;;;;;;;11.40;6.53;;;;;;;;;;4955987;28;20392;-68
2022/04/01 09:13:50;;;;;;;7.13;6.07;;;;;;;;;;4955794;28;20483;-68
2022/04/01 09:16:45;;;;;;;10.82;6.25;;;;;;;;;;4956315;28;20511;-68
2022/04/01 09:19:15;;;;;;;16.10;6.28;;;;;;;;;;4953915;29;20051;-69
2022/04/01 09:21:47;;;;;;;8.57;6.00;;;;;;;;;;4956191;28;20051;-68
2022/04/01 09:24:16;;;;;;;9.48;6.78;;;;;;;;;;4954719;29;20047;-68
2022/04/01 09:26:47;;;;;;;8.82;6.03;;;;;;;;;;4955720;28;20051;-68
2022/04/01 09:29:18;;;;;;;7.80;6.88;;;;;;;;;;4955887;28;20102;-67
2022/04/01 09:31:55;;;;;;;11.82;7.57;;;;;;;;;;4954883;28;20055;-68
2022/04/01 09:34:30;;;;;;;11.48;7.18;;;;;;;;;;4955703;28;20079;-68
2022/04/01 09:37:02;;;;;;;12.18;6.72;;;;;;;;;;4956192;28;20047;-68
2022/04/01 09:39:33;;;;;;;10.05;6.40;;;;;;;;;;4955697;28;20047;-68
2022/04/01 09:42:10;;;;;;;10.32;7.75;;;;;;;;;;4956083;28;20054;-68
2022/04/01 09:44:38;;;;;;;15.13;8.02;;;;;;;;;;4955804;28;20154;-68
2022/04/01 09:47:07;;;;;;;9.40;7.50;;;;;;;;;;4955321;28;20145;-68
2022/04/01 09:49:39;;;;;;;8.63;6.45;;;;;;;;;;4955568;28;20062;-65
2022/04/01 09:52:10;;;;;;;8.50;6.45;;;;;;;;;;4955235;28;20122;-66
2022/04/01 09:54:45;;;;;;;9.20;7.70;;;;;;;;;;4955344;28;20134;-68
2022/04/01 09:57:15;;;;;;;8.80;7.57;;;;;;;;;;4955203;28;20399;-68
2022/04/01 09:59:45;;;;;;;7.85;7.10;;;;;;;;;;4955850;28;20055;-68
2022/04/01 10:02:13;;;;;;;8.25;7.45;;;;;;;;;;4955483;29;20151;-68
2022/04/01 10:04:44;;;;;;;8.38;7.57;;;;;;;;;;4938597;29;20051;-68
2022/04/01 10:07:13;;;;;;;8.80;8.00;;;;;;;;;;4935926;29;20048;-68
2022/04/01 10:09:43;;;;;;;8.88;7.85;;;;;;;;;;4936335;29;20048;-68
2022/04/01 10:12:32;;;;;;;8.88;7.70;;;;;;;;;;4936250;28;20051;-66
2022/04/01 10:15:07;;;;;;;11.63;7.45;;;;;;;;;;4936184;29;20142;-66
2022/04/01 10:17:54;;;;;;;11.50;8.05;;;;;;;;;;4936275;29;20063;-66
2022/04/01 10:20:35;;;;;;;8.18;7.38;;;;;;;;;;4936118;29;20419;-66
2022/04/01 10:23:06;;;;;;;8.80;7.97;;;;;;;;;;4934719;29;20052;-66
2022/04/01 10:26:02;;;;;;;12.45;7.20;;;;;;;;;;4935326;29;20097;-66
2022/04/01 10:28:30;;;;;;;;;;;;;;;;;;4936261;28;20115;-66
2022/04/01 10:31:00;;;;;;;7.90;7.20;;;;;;;;;;4936270;29;19970;-66
2022/04/01 10:33:35;;;;;;;9.15;6.70;;;;;;;;;;4936644;29;20400;-66
2022/04/01 10:36:17;;;;;;;10.48;7.70;;;;;;;;;;4936038;29;20111;-66
2022/04/01 10:38:48;;;;;;;8.77;7.88;;;;;;;;;;4934814;29;20102;-66
2022/04/01 10:41:18;;;;;;;7.90;7.15;;;;;;;;;;4935641;29;20491;-68
2022/04/01 10:43:54;;;;;;;9.45;7.00;;;;;;;;;;4936127;29;20063;-68
2022/04/01 10:46:23;;;;;;;7.25;6.57;;;;;;;;;;4935795;29;20051;-68
2022/04/01 10:52:02;;;;;;;9.05;7.85;;;;;;;;;;4935725;29;20095;-67
2022/04/01 10:54:29;;;;;;;9.98;8.00;;;;;;;;;;4935945;29;20131;-68
2022/04/01 10:57:00;;;;;;;9.68;8.25;;;;;;;;;;4935507;29;20142;-68
2022/04/01 10:59:29;;;;;;;12.90;8.50;;;;;;;;;;4936314;29;20064;-68
2022/04/01 11:02:00;;;;;;;9.90;8.07;;;;;;;;;;4935161;29;20055;-68
2022/04/01 11:04:31;;;;;;;9.95;7.88;;;;;;;;;;4935984;29;20062;-67
2022/04/01 11:07:14;;;;;;;13.00;9.50;;;;;;;;;;4935885;29;20054;-67
2022/04/01 11:09:54;;;;;;;9.18;8.30;;;;;;;;;;4935507;29;20059;-67
2022/04/01 11:12:32;;;;;;;12.48;8.77;;;;;;;;;;4935971;29;20513;-68
2022/04/01 11:15:00;;;;;;;9.82;8.93;;;;;;;;;;4935937;29;20067;-68
2022/04/01 11:17:36;;;;;;;10.55;8.30;;;;;;;;;;4935899;29;20067;-69
2022/04/01 11:20:28;;;;;;;16.60;9.77;;;;;;;;;;4935626;29;20511;-66
2022/04/01 11:23:10;;;;;;;9.55;8.18;;;;;;;;;;4935188;29;20476;-67
2022/04/01 11:25:44;;;;;;;15.18;8.85;;;;;;;;;;4935105;29;20048;-67
2022/04/01 11:28:16;;;;;;;12.20;7.85;;;;;;;;;;4935861;29;20110;-67
2022/04/01 11:30:53;;;;;;;8.82;7.80;;;;;;;;;;4935521;29;20055;-67
2022/04/01 11:33:23;;;;;;;8.65;7.75;;;;;;;;;;4935606;29;20055;-67
2022/04/01 11:35:54;;;;;;;10.23;9.23;;;;;;;;;;4939153;29;20055;-67
2022/04/01 11:38:27;;;;;;;9.35;8.35;;;;;;;;;;4944979;28;20495;-67
2022/04/01 11:40:58;;;;;;;8.95;8.05;;;;;;;;;;4958951;28;20515;-67
2022/04/01 11:43:29;;;;;;;11.25;8.60;;;;;;;;;;4957881;28;20522;-67
2022/04/01 11:46:04;;;;;;;17.05;8.55;;;;;;;;;;4957963;28;20051;-67
2022/04/01 11:48:38;;;;;;;11.40;8.20;;;;;;;;;;4956282;28;20055;-67
2022/04/01 11:51:40;;;;;;;11.68;8.55;;;;;;;;;;4946413;29;20055;-67
2022/04/01 11:54:10;;;;;;;9.95;8.55;;;;;;;;;;4937365;29;20083;-67
2022/04/01 11:56:39;;;;;;;10.80;8.30;;;;;;;;;;4938451;29;20142;-67
2022/04/01 11:59:07;;;;;;;10.80;7.93;;;;;;;;;;4938500;29;20090;-67
2022/04/01 12:01:55;;;;;;;14.30;8.23;;;;;;;;;;4938508;29;20504;-67
2022/04/01 12:04:33;;;;;;;10.27;7.95;;;;;;;;;;4938699;28;20527;-67
2022/04/01 12:10:04;;;;;;;9.63;8.10;;;;;;;;;;4938398;29;20053;-68
2022/04/01 12:12:34;;;;;;;9.82;7.88;;;;;;;;;;4938814;29;20052;-67
2022/04/01 12:15:06;;;;;;;12.30;8.93;;;;;;;;;;4938602;29;20138;-67
2022/04/01 12:17:48;;;;;;;11.98;9.02;;;;;;;;;;4936931;29;20470;-67
2022/04/01 12:20:20;;;;;;;9.35;8.43;;;;;;;;;;4938235;29;20151;-68
2022/04/01 12:22:58;;;;;;;10.98;8.80;;;;;;;;;;4938143;29;20050;-67
2022/04/01 12:25:29;;;;;;;11.75;9.27;;;;;;;;;;4937698;29;20059;-67
2022/04/01 12:27:59;;;;;;;14.20;10.40;;;;;;;;;;4938087;29;20130;-67
2022/04/01 12:30:30;;;;;;;12.60;10.07;;;;;;;;;;4938169;29;20048;-68
2022/04/01 12:33:01;;;;;;;12.15;8.38;;;;;;;;;;4938062;29;20106;-67
2022/04/01 12:35:31;;;;;;;12.45;9.07;;;;;;;;;;4937904;29;20059;-67
2022/04/01 12:38:10;;;;;;;12.52;10.18;;;;;;;;;;4937911;29;20046;-67
2022/04/01 12:40:44;;;;;;;14.00;10.20;;;;;;;;;;4937426;29;20058;-67
2022/04/01 12:43:33;;;;;;;14.18;9.52;;;;;;;;;;4940053;29;20058;-67
2022/04/01 12:46:12;;;;;;;10.38;8.40;;;;;;;;;;4956016;28;20066;-67
2022/04/01 12:48:48;;;;;;;11.13;9.07;;;;;;;;;;4956920;28;20055;-67
2022/04/01 12:51:36;;;;;;;13.07;7.97;;;;;;;;;;4956463;28;20110;-67
2022/04/01 12:54:09;;;;;;;10.98;8.40;;;;;;;;;;4956587;28;20137;-65
2022/04/01 12:56:43;;;;;;;11.63;9.10;;;;;;;;;;4956369;28;20490;-65
2022/04/01 12:59:16;;;;;;;16.40;8.70;;;;;;;;;;4956560;28;20055;-65
2022/04/01 13:01:46;;;;;;;11.55;8.15;;;;;;;;;;4956449;28;20051;-66
2022/04/01 13:04:20;;;;;;;10.57;7.35;;;;;;;;;;4955191;29;20395;-65
2022/04/01 13:07:08;;;;;;;11.85;7.90;;;;;;;;;;4956262;28;20102;-65
2022/04/01 13:10:06;;;;;;;11.18;7.35;;;;;;;;;;4956595;28;20061;-65
2022/04/01 13:12:42;;;;;;;9.55;7.13;;;;;;;;;;4957798;28;20059;-65
2022/04/01 13:15:13;;;;;;;10.38;8.15;;;;;;;;;;4937061;29;20408;-65
2022/04/01 13:17:49;;;;;;;8.85;7.38;;;;;;;;;;4937416;29;20487;-66
2022/04/01 13:20:36;;;;;;;16.98;8.10;;;;;;;;;;4937008;29;20040;-65
2022/04/01 13:23:06;;;;;;;20.00;7.32;;;;;;;;;;4936404;29;20460;-67
2022/04/01 13:25:38;;;;;;;13.07;8.00;;;;;;;;;;4936735;29;20052;-67
2022/04/01 13:28:09;;;;;;;10.88;6.60;;;;;;;;;;4936892;29;20048;-65
2022/04/01 13:30:38;;;;;;;10.38;5.88;;;;;;;;;;4936780;29;20122;-65
2022/04/01 13:33:07;;;;;;;11.93;6.95;;;;;;;;;;4936732;29;20511;-65
2022/04/01 13:35:34;;;;;;;9.45;7.55;;;;;;;;;;4936318;29;20048;-65
2022/04/01 13:38:03;;;;;;;8.82;5.93;;;;;;;;;;4936766;28;20055;-65
2022/04/01 13:40:33;;;;;;;12.82;5.85;;;;;;;;;;4936758;29;20055;-65
2022/04/01 13:43:02;;;;;;;9.27;5.10;;;;;;;;;;4936322;29;20047;-65
2022/04/01 13:45:30;;;;;;;8.73;4.55;;;;;;;;;;4940905;29;20051;-65
2022/04/01 13:48:00;;;;;;;7.57;5.03;;;;;;;;;;4954759;28;20138;-65
2022/04/01 13:50:30;;;;;;;7.22;4.75;;;;;;;;;;4955875;28;20085;-65
2022/04/01 13:52:59;;;;;;;8.18;4.93;;;;;;;;;;4955557;28;20051;-66
2022/04/01 13:55:27;;;;;;;9.77;4.25;;;;;;;;;;4954806;28;20083;-68
2022/04/01 13:58:04;;;;;;;8.55;3.35;;;;;;;;;;4937198;28;20048;-68
2022/04/01 14:00:33;;;;;;;8.98;2.33;;;;;;;;;;4936549;29;20444;-68
2022/04/01 14:03:01;;;;;;;5.15;2.90;;;;;;;;;;4936114;29;20138;-68
2022/04/01 14:05:29;;;;;;;6.18;3.58;;;;;;;;;;4936655;29;20058;-68
2022/04/01 14:08:00;;;;;;;4.95;3.55;;;;;;;;;;4936106;29;20051;-67
2022/04/01 14:10:29;;;;;;;7.20;4.35;;;;;;;;;;4936137;28;20052;-68
2022/04/01 14:12:59;;;;;;;5.20;3.13;;;;;;;;;;4936583;29;20566;-67
2022/04/01 14:15:30;;;;;;;3.75;2.50;;;;;;;;;;4945834;28;20439;-66
2022/04/01 14:17:59;;;;;;;9.75;2.60;;;;;;;;;;4954616;29;20088;-65
2022/04/01 14:20:31;;;;;;;4.97;2.50;;;;;;;;;;4944608;28;20055;-65
2022/04/01 14:23:00;;;;;;;6.13;2.80;;;;;;;;;;4938523;29;20138;-65
2022/04/01 14:25:30;;;;;;;10.77;2.17;;;;;;;;;;4953525;29;20126;-65
2022/04/01 14:28:00;;;;;;;8.23;2.30;;;;;;;;;;4954919;28;20530;-66
2022/04/01 14:30:29;;;;;;;5.18;1.83;;;;;;;;;;4954725;28;20404;-65
2022/04/01 14:32:59;;;;;;;2.78;1.52;;;;;;;;;;4954916;28;20055;-65
2022/04/01 14:35:28;;;;;;;2.20;1.40;;;;;;;;;;4940679;28;20075;-65
2022/04/01 14:37:57;;;;;;;6.53;1.73;;;;;;;;;;4935711;28;20063;-65
2022/04/01 14:40:27;;;;;;;2.70;1.23;;;;;;;;;;4942671;29;20138;-65
2022/04/01 14:42:55;;;;;;;3.65;1.45;;;;;;;;;;4953520;28;20047;-65
2022/04/01 14:45:24;;;;;;;11.55;3.33;;;;;;;;;;4935609;29;20134;-65
2022/04/01 14:47:52;;;;;;;5.47;2.38;;;;;;;;;;4935258;29;20056;-65
2022/04/01 14:50:20;;;;;;;3.67;1.90;;;;;;;;;;4935874;29;20105;-65
2022/04/01 14:52:49;;;;;;;3.35;1.55;;;;;;;;;;4953404;29;20047;-65
2022/04/01 14:55:18;;;;;;;3.15;1.10;;;;;;;;;;4954846;28;20066;-65
2022/04/01 14:57:47;;;;;;;4.65;1.63;;;;;;;;;;4954038;28;20142;-65
2022/04/01 15:00:15;;;;;;;3.15;1.55;;;;;;;;;;4936232;29;20505;-65
2022/04/01 15:02:44;;;;;;;3.10;1.45;;;;;;;;;;4934505;29;20126;-66
2022/04/01 15:05:14;;;;;;;4.10;2.17;;;;;;;;;;4936116;29;20070;-66
2022/04/01 15:07:44;;;;;;;1.35;1.25;;;;;;;;;;4935902;29;20051;-66
2022/04/01 15:10:14;;;;;;;3.95;1.65;;;;;;;;;;4938109;29;20094;-66
2022/04/01 15:12:43;;;;;;;2.97;1.83;;;;;;;;;;4939262;28;20056;-65
2022/04/01 15:15:16;;;;;;;1.75;1.10;;;;;;;;;;4939052;28;20138;-65
2022/04/01 15:17:44;;;;;;;5.40;2.17;;;;;;;;;;4955957;28;20062;-65
2022/04/01 15:20:14;;;;;;;2.85;1.55;;;;;;;;;;4949903;29;20055;-65